Time;durP1;ratioP1;P1;durP2;ratioP2;P2;SDS_P1;SDS_P2;PMS_P1;PMS_P2;Temp;Humidity;BMP_temperature;BMP_pressure;BME280_temperature;BME280_humidity;BME280_pressure;Samples;Min_cycle;Max_cycle;Signal;HPM_P1;HPM_P2
2022/03/04 00:01:13;;;;;;;25.13;12.82;;;0.60;57.80;;;;;;4910263;29;20080;-66
2022/03/04 00:03:39;;;;;;;20.08;12.30;;;0.60;57.80;;;;;;4910073;28;20039;-66
2022/03/04 00:06:05;;;;;;;23.52;13.15;;;0.60;57.90;;;;;;4909740;28;20044;-66
2022/03/04 00:08:31;;;;;;;25.63;12.43;;;0.60;57.80;;;;;;4903053;29;20112;-66
2022/03/04 00:10:57;;;;;;;24.45;12.77;;;0.60;57.80;;;;;;4909915;28;20119;-65
2022/03/04 00:13:23;;;;;;;21.20;12.10;;;0.60;57.80;;;;;;4905662;29;20412;-66
2022/03/04 00:15:49;;;;;;;24.33;12.27;;;0.60;58.20;;;;;;4904787;28;20032;-66
2022/03/04 00:18:15;;;;;;;23.45;11.98;;;0.70;57.80;;;;;;4905647;29;20100;-68
2022/03/04 00:20:41;;;;;;;19.75;11.40;;;0.70;57.70;;;;;;4905596;28;20508;-64
2022/03/04 00:23:07;;;;;;;22.48;12.52;;;0.80;57.70;;;;;;4904714;28;20028;-66
2022/03/04 00:25:33;;;;;;;22.98;11.85;;;0.80;57.60;;;;;;4905897;29;20035;-66
2022/03/04 00:27:58;;;;;;;24.58;12.82;;;0.80;57.50;;;;;;4906159;28;20531;-66
2022/03/04 00:30:24;;;;;;;23.33;12.98;;;0.80;57.50;;;;;;4904234;28;20059;-66
2022/03/04 00:32:50;;;;;;;19.60;11.50;;;0.90;57.50;;;;;;4903995;29;20052;-66
2022/03/04 00:35:15;;;;;;;20.25;11.68;;;0.90;57.40;;;;;;4905511;28;20040;-66
2022/03/04 00:37:41;;;;;;;21.42;11.10;;;0.90;57.30;;;;;;4904766;29;20039;-65
2022/03/04 00:40:08;;;;;;;19.80;11.05;;;0.90;57.30;;;;;;4905425;28;20086;-66
2022/03/04 00:42:34;;;;;;;21.55;11.93;;;1.00;57.20;;;;;;4904613;28;20035;-66
2022/03/04 00:45:00;;;;;;;21.85;12.38;;;0.90;57.20;;;;;;4904406;29;20044;-65
2022/03/04 00:47:26;;;;;;;23.50;12.15;;;0.90;57.00;;;;;;4903855;28;20046;-67
2022/03/04 00:49:52;;;;;;;22.38;12.65;;;0.90;57.10;;;;;;4902821;29;20143;-65
2022/03/04 00:52:17;;;;;;;23.98;12.68;;;0.90;57.10;;;;;;4905414;28;20044;-66
2022/03/04 00:54:43;;;;;;;22.80;12.98;;;0.90;57.10;;;;;;4904770;28;26040;-66
2022/03/04 00:57:09;;;;;;;23.98;13.02;;;0.90;57.10;;;;;;4905457;29;22789;-66
2022/03/04 00:59:34;;;;;;;23.42;13.00;;;0.80;57.00;;;;;;4907398;28;20197;-66
2022/03/04 01:02:00;;;;;;;23.80;12.88;;;0.80;57.10;;;;;;4905070;29;20048;-66
2022/03/04 01:04:25;;;;;;;21.52;11.57;;;0.80;57.10;;;;;;4906604;28;20032;-66
2022/03/04 01:06:51;;;;;;;21.63;11.75;;;0.70;57.00;;;;;;4906517;28;20048;-65
2022/03/04 01:09:17;;;;;;;23.73;12.65;;;0.70;57.00;;;;;;4907228;29;20064;-66
2022/03/04 01:11:42;;;;;;;21.55;12.25;;;0.70;57.00;;;;;;4907663;28;20032;-66
2022/03/04 01:14:09;;;;;;;24.38;12.23;;;0.70;57.10;;;;;;4910187;29;20051;-66
2022/03/04 01:16:35;;;;;;;21.83;11.93;;;0.60;57.10;;;;;;4905967;28;20035;-65
2022/03/04 01:19:01;;;;;;;20.60;11.95;;;0.60;57.10;;;;;;4905237;28;20043;-66
2022/03/04 01:21:28;;;;;;;20.20;11.98;;;0.50;57.10;;;;;;4908667;28;20043;-65
2022/03/04 01:23:54;;;;;;;20.63;11.10;;;0.50;57.20;;;;;;4909101;28;20035;-66
2022/03/04 01:26:20;;;;;;;20.27;11.30;;;0.50;57.20;;;;;;4907364;29;20126;-66
2022/03/04 01:28:46;;;;;;;25.95;12.40;;;0.40;57.20;;;;;;4910096;28;20040;-65
2022/03/04 01:31:12;;;;;;;20.02;11.32;;;0.40;57.30;;;;;;4908593;28;20051;-66
2022/03/04 01:33:39;;;;;;;25.42;11.98;;;0.40;57.40;;;;;;4908707;29;20118;-64
2022/03/04 01:36:05;;;;;;;21.42;12.50;;;0.40;57.50;;;;;;4906638;28;20765;-66
2022/03/04 01:38:31;;;;;;;22.38;12.57;;;0.40;57.50;;;;;;4906910;28;20076;-66
2022/03/04 01:40:56;;;;;;;22.30;11.70;;;0.30;57.50;;;;;;4908156;29;20504;-66
2022/03/04 01:43:22;;;;;;;19.05;11.25;;;0.30;57.50;;;;;;4907684;28;20579;-66
2022/03/04 01:45:47;;;;;;;22.08;11.90;;;0.30;57.50;;;;;;4906434;29;20075;-65
2022/03/04 01:48:13;;;;;;;23.88;11.73;;;0.20;57.50;;;;;;4907274;28;20618;-65
2022/03/04 01:50:39;;;;;;;23.92;12.15;;;0.20;57.60;;;;;;4906386;28;20028;-66
2022/03/04 01:53:05;;;;;;;19.75;11.25;;;0.10;57.50;;;;;;4911274;28;20044;-66
2022/03/04 01:55:31;;;;;;;22.48;12.00;;;0.10;57.60;;;;;;4909745;28;20055;-66
2022/03/04 01:57:57;;;;;;;23.42;13.05;;;0.10;57.70;;;;;;4910328;29;20068;-66
2022/03/04 02:00:22;;;;;;;21.05;11.98;;;0.00;57.70;;;;;;4908085;29;20775;-65
2022/03/04 02:02:48;;;;;;;27.42;12.65;;;0.00;57.80;;;;;;4909587;28;20033;-66
2022/03/04 02:05:16;;;;;;;23.58;13.05;;;-0.10;57.90;;;;;;4906255;28;20048;-67
2022/03/04 02:07:41;;;;;;;27.77;13.95;;;-0.10;58.00;;;;;;4906864;29;20048;-66
2022/03/04 02:10:09;;;;;;;21.30;12.23;;;-0.20;58.00;;;;;;4905004;28;20032;-66
2022/03/04 02:12:35;;;;;;;24.10;12.05;;;-0.20;58.70;;;;;;4906470;28;20047;-66
2022/03/04 02:15:03;;;;;;;22.73;13.00;;;-0.20;58.10;;;;;;4907237;28;20071;-66
2022/03/04 02:17:28;;;;;;;22.30;12.25;;;-0.30;58.10;;;;;;4906626;28;20040;-66
2022/03/04 02:19:54;;;;;;;21.98;11.98;;;-0.30;58.20;;;;;;4908341;28;20040;-66
2022/03/04 02:22:20;;;;;;;20.88;12.82;;;-0.30;58.30;;;;;;4922777;28;20036;-66
2022/03/04 02:24:46;;;;;;;21.70;12.55;;;-0.40;58.30;;;;;;4908128;28;20062;-66
2022/03/04 02:27:12;;;;;;;24.48;13.63;;;-0.40;58.40;;;;;;4908565;28;20047;-66
2022/03/04 02:29:37;;;;;;;29.63;13.40;;;-0.40;58.50;;;;;;4909921;28;20122;-67
2022/03/04 02:32:04;;;;;;;25.10;13.00;;;-0.50;58.40;;;;;;4906184;29;20055;-66
2022/03/04 02:34:29;;;;;;;27.33;14.60;;;-0.50;58.50;;;;;;4909437;28;20118;-66
2022/03/04 02:36:56;;;;;;;28.00;14.98;;;-0.50;58.60;;;;;;4906493;28;20559;-66
2022/03/04 02:39:21;;;;;;;27.90;14.60;;;-0.60;58.70;;;;;;4906987;29;20087;-66
2022/03/04 02:41:47;;;;;;;28.10;14.75;;;-0.60;58.80;;;;;;4905211;29;20044;-65
2022/03/04 02:44:13;;;;;;;30.27;14.45;;;-0.70;58.90;;;;;;4908271;29;20919;-66
2022/03/04 02:46:40;;;;;;;22.65;13.18;;;-0.70;58.90;;;;;;4907447;28;20028;-66
2022/03/04 02:49:07;;;;;;;21.45;12.90;;;-0.80;59.00;;;;;;4906253;28;20035;-66
2022/03/04 02:51:33;;;;;;;25.27;13.02;;;-0.80;59.00;;;;;;4906175;29;20424;-66
2022/03/04 02:53:58;;;;;;;23.55;13.70;;;-0.90;59.00;;;;;;4907725;28;20033;-66
2022/03/04 02:56:24;;;;;;;24.02;13.18;;;-0.90;59.10;;;;;;4908634;28;20116;-66
2022/03/04 02:58:50;;;;;;;21.90;13.18;;;-0.90;59.20;;;;;;4907885;29;20114;-65
2022/03/04 03:01:16;;;;;;;25.35;12.82;;;-1.00;59.20;;;;;;4906051;28;20079;-66
2022/03/04 03:03:42;;;;;;;22.88;13.13;;;-1.00;59.30;;;;;;4907274;28;20068;-66
2022/03/04 03:06:08;;;;;;;21.13;12.52;;;-1.10;59.30;;;;;;4902965;29;20188;-65
2022/03/04 03:08:33;;;;;;;22.00;11.82;;;-1.10;59.50;;;;;;4908495;28;20455;-65
2022/03/04 03:10:59;;;;;;;21.50;12.18;;;-1.10;59.50;;;;;;4902178;29;20056;-66
2022/03/04 03:13:25;;;;;;;21.48;11.77;;;-1.10;59.50;;;;;;4904568;29;20032;-65
2022/03/04 03:15:50;;;;;;;25.90;12.95;;;-1.20;59.50;;;;;;4908560;29;20036;-66
2022/03/04 03:18:17;;;;;;;21.75;12.23;;;-1.20;59.50;;;;;;4905028;29;20037;-65
2022/03/04 03:20:43;;;;;;;23.65;13.00;;;-1.20;59.70;;;;;;4906311;28;20208;-65
2022/03/04 03:23:08;;;;;;;24.40;13.23;;;-1.20;59.70;;;;;;4905262;29;20587;-65
2022/03/04 03:25:34;;;;;;;21.08;12.40;;;-1.30;59.70;;;;;;4907442;28;20039;-67
2022/03/04 03:28:00;;;;;;;22.60;12.98;;;-1.30;59.80;;;;;;4907253;28;20047;-66
2022/03/04 03:30:26;;;;;;;24.83;12.88;;;-1.30;59.80;;;;;;4907883;28;20123;-66
2022/03/04 03:32:52;;;;;;;22.60;12.57;;;-1.30;59.90;;;;;;4908342;29;20147;-64
2022/03/04 03:35:18;;;;;;;23.23;12.98;;;-1.30;59.90;;;;;;4905494;28;20044;-65
2022/03/04 03:37:44;;;;;;;21.65;12.88;;;-1.40;59.80;;;;;;4906576;28;20111;-66
2022/03/04 03:40:11;;;;;;;24.33;12.23;;;-1.40;59.90;;;;;;4906475;29;20040;-66
2022/03/04 03:42:39;;;;;;;22.52;12.60;;;-1.40;60.00;;;;;;4900495;28;20036;-65
2022/03/04 03:45:06;;;;;;;22.80;12.52;;;-1.40;60.00;;;;;;4905448;28;20032;-66
2022/03/04 03:47:31;;;;;;;22.92;12.10;;;-1.50;60.00;;;;;;4904853;29;20059;-66
2022/03/04 03:49:57;;;;;;;21.35;12.57;;;-1.50;60.00;;;;;;4906762;28;20040;-66
2022/03/04 03:52:23;;;;;;;25.05;12.88;;;-1.50;60.10;;;;;;4905414;29;20040;-66
2022/03/04 03:54:48;;;;;;;21.52;12.02;;;-1.50;60.10;;;;;;4925735;28;20043;-66
2022/03/04 03:57:14;;;;;;;22.00;12.68;;;-1.50;60.20;;;;;;4926314;28;20046;-66
2022/03/04 03:59:40;;;;;;;22.67;12.60;;;-1.60;60.20;;;;;;4927045;28;20043;-65
2022/03/04 04:02:05;;;;;;;21.30;12.43;;;-1.60;60.20;;;;;;4926640;28;20039;-66
2022/03/04 04:04:34;;;;;;;22.40;12.80;;;-1.60;60.20;;;;;;4925682;28;20028;-66
2022/03/04 04:07:10;;;;;;;24.45;12.80;;;-1.60;60.20;;;;;;4921726;28;20047;-66
2022/03/04 04:09:36;;;;;;;23.15;12.77;;;-1.60;60.60;;;;;;4918902;28;20119;-66
2022/03/04 04:12:03;;;;;;;25.70;12.65;;;-1.60;60.30;;;;;;4920610;28;20557;-66
2022/03/04 04:14:28;;;;;;;27.35;13.45;;;-1.70;60.40;;;;;;4921846;28;20065;-66
2022/03/04 04:16:56;;;;;;;25.88;13.20;;;-1.70;60.40;;;;;;4927270;28;20567;-66
2022/03/04 04:19:22;;;;;;;25.15;13.85;;;-1.70;60.40;;;;;;4923359;28;20042;-65
2022/03/04 04:21:49;;;;;;;25.25;13.32;;;-1.70;60.50;;;;;;4924385;28;20036;-66
2022/03/04 04:24:15;;;;;;;27.52;13.57;;;-1.70;60.50;;;;;;4924702;28;20578;-66
2022/03/04 04:26:42;;;;;;;27.33;13.05;;;-1.70;60.60;;;;;;4924232;28;20543;-65
2022/03/04 04:29:07;;;;;;;23.52;13.45;;;-1.80;60.60;;;;;;4924104;28;20046;-65
2022/03/04 04:31:33;;;;;;;25.75;13.10;;;-1.80;60.70;;;;;;4921888;28;20036;-65
2022/03/04 04:34:01;;;;;;;27.30;13.00;;;-1.80;60.70;;;;;;4921440;28;20043;-66
2022/03/04 04:36:27;;;;;;;23.67;12.93;;;-1.80;60.70;;;;;;4923758;28;20068;-65
2022/03/04 04:38:53;;;;;;;23.88;12.82;;;-1.80;60.90;;;;;;4921593;28;20059;-65
2022/03/04 04:41:19;;;;;;;24.27;12.52;;;-1.90;60.80;;;;;;4922061;28;20516;-66
2022/03/04 04:43:45;;;;;;;22.73;12.25;;;-1.90;60.90;;;;;;4923083;28;20095;-65
2022/03/04 04:46:11;;;;;;;23.63;12.52;;;-1.90;60.90;;;;;;4905071;28;20136;-66
2022/03/04 04:48:37;;;;;;;22.63;12.68;;;-1.90;60.90;;;;;;4907839;28;20050;-66
2022/03/04 04:51:03;;;;;;;22.83;11.98;;;-1.90;60.90;;;;;;4903386;29;20091;-64
2022/03/04 04:53:28;;;;;;;26.00;12.80;;;-2.00;60.90;;;;;;4918956;28;20043;-66
2022/03/04 04:55:54;;;;;;;22.08;12.40;;;-2.00;60.90;;;;;;4902047;29;20032;-65
2022/03/04 04:58:20;;;;;;;25.25;13.32;;;-2.00;60.90;;;;;;4905746;28;20074;-66
2022/03/04 05:00:50;;;;;;;26.30;12.73;;;-2.10;60.90;;;;;;4897523;28;20070;-69
2022/03/04 05:03:17;;;;;;;26.45;12.85;;;-2.10;60.90;;;;;;4904568;29;20032;-66
2022/03/04 05:05:43;;;;;;;21.58;12.90;;;-2.10;61.00;;;;;;4924273;28;20531;-66
2022/03/04 05:08:08;;;;;;;23.50;13.23;;;-2.10;60.90;;;;;;4902681;29;20071;-66
2022/03/04 05:10:34;;;;;;;22.10;12.43;;;-2.10;61.10;;;;;;4902228;28;20052;-63
2022/03/04 05:13:00;;;;;;;25.73;12.88;;;-2.10;61.10;;;;;;4901919;28;20769;-65
2022/03/04 05:15:25;;;;;;;26.02;12.38;;;-2.20;61.10;;;;;;4906941;28;20063;-68
2022/03/04 05:17:51;;;;;;;28.13;12.65;;;-2.20;61.30;;;;;;4905872;28;20039;-68
2022/03/04 05:20:18;;;;;;;24.75;12.77;;;-2.20;61.40;;;;;;4905157;28;20499;-66
2022/03/04 05:22:44;;;;;;;25.35;12.68;;;-2.20;61.60;;;;;;4905989;28;20044;-65
2022/03/04 05:25:10;;;;;;;23.67;12.45;;;-2.20;61.70;;;;;;4900472;29;20393;-65
2022/03/04 05:27:35;;;;;;;24.98;13.02;;;-2.20;62.60;;;;;;4904430;29;20103;-66
2022/03/04 05:30:01;;;;;;;25.23;12.68;;;-2.20;61.60;;;;;;4903606;28;20044;-65
2022/03/04 05:32:27;;;;;;;26.27;13.70;;;-2.20;61.70;;;;;;4904014;28;20668;-65
2022/03/04 05:34:53;;;;;;;24.50;13.18;;;-2.20;61.70;;;;;;4899972;29;20040;-64
2022/03/04 05:37:18;;;;;;;34.40;17.08;;;-2.20;61.80;;;;;;4897830;28;20411;-64
2022/03/04 05:39:44;;;;;;;29.90;15.38;;;-2.20;61.80;;;;;;4901937;28;20055;-65
2022/03/04 05:42:09;;;;;;;28.55;13.88;;;-2.20;61.80;;;;;;4900501;28;20088;-66
2022/03/04 05:44:35;;;;;;;26.08;13.25;;;-2.20;62.00;;;;;;4907803;28;20064;-65
2022/03/04 05:47:00;;;;;;;31.38;14.38;;;-2.20;62.00;;;;;;4904771;28;20040;-66
2022/03/04 05:49:26;;;;;;;26.55;13.02;;;-2.20;62.00;;;;;;4908872;28;20043;-64
2022/03/04 05:51:52;;;;;;;24.38;13.00;;;-2.20;62.00;;;;;;4911901;29;20033;-67
2022/03/04 05:54:18;;;;;;;28.98;13.93;;;-2.30;62.00;;;;;;4911803;28;20066;-66
2022/03/04 05:56:43;;;;;;;33.42;15.77;;;-2.30;62.00;;;;;;4909583;28;20079;-66
2022/03/04 05:59:09;;;;;;;39.33;16.83;;;-2.30;62.10;;;;;;4910714;28;20139;-68
2022/03/04 06:01:35;;;;;;;36.72;17.05;;;-2.30;62.10;;;;;;4911270;28;20510;-67
2022/03/04 06:04:00;;;;;;;36.58;16.42;;;-2.30;62.00;;;;;;4912214;29;20032;-67
2022/03/04 06:06:26;;;;;;;39.92;16.95;;;-2.30;62.10;;;;;;4904938;28;20523;-69
2022/03/04 06:08:52;;;;;;;29.73;14.30;;;-2.30;62.20;;;;;;4911745;28;20028;-67
2022/03/04 06:11:19;;;;;;;31.73;15.30;;;-2.30;62.30;;;;;;4911222;29;20040;-65
2022/03/04 06:13:45;;;;;;;29.73;15.15;;;-2.40;62.50;;;;;;4911698;28;20030;-66
2022/03/04 06:16:11;;;;;;;37.28;15.73;;;-2.40;62.60;;;;;;4910483;28;20128;-66
2022/03/04 06:18:37;;;;;;;28.65;15.27;;;-2.40;62.70;;;;;;4911291;28;20551;-69
2022/03/04 06:21:03;;;;;;;38.38;17.38;;;-2.40;62.80;;;;;;4908698;28;20529;-68
2022/03/04 06:23:30;;;;;;;32.05;16.63;;;-2.40;62.80;;;;;;4907389;28;20036;-69
2022/03/04 06:25:57;;;;;;;38.10;17.83;;;-2.40;62.80;;;;;;4908118;28;20028;-69
2022/03/04 06:28:24;;;;;;;40.78;17.30;;;-2.40;62.80;;;;;;4907095;29;20092;-67
2022/03/04 06:30:50;;;;;;;35.15;16.98;;;-2.40;62.90;;;;;;4906630;28;20048;-66
2022/03/04 06:33:30;;;;;;;37.65;16.00;;;-2.40;62.90;;;;;;4907335;28;20052;-67
2022/03/04 06:35:59;;;;;;;36.28;16.60;;;-2.40;63.00;;;;;;4905371;28;20056;-67
2022/03/04 06:38:25;;;;;;;36.63;16.17;;;-2.40;63.20;;;;;;4905715;28;20040;-66
2022/03/04 06:40:51;;;;;;;38.03;16.27;;;-2.30;63.30;;;;;;4905397;28;20629;-66
2022/03/04 06:43:17;;;;;;;35.55;16.55;;;-2.30;63.50;;;;;;4906795;29;20036;-66
2022/03/04 06:45:45;;;;;;;42.60;15.70;;;-2.30;63.50;;;;;;4908841;28;20032;-67
2022/03/04 06:48:11;;;;;;;38.17;15.80;;;-2.30;63.70;;;;;;4907361;28;20044;-66
2022/03/04 06:50:37;;;;;;;50.58;17.23;;;-2.20;63.70;;;;;;4907371;28;20032;-65
2022/03/04 06:53:03;;;;;;;45.90;19.17;;;-2.20;63.90;;;;;;4907813;28;20043;-66
2022/03/04 06:55:30;;;;;;;44.15;18.33;;;-2.20;63.90;;;;;;4908188;28;20036;-66
2022/03/04 06:57:55;;;;;;;39.15;17.80;;;-2.10;64.10;;;;;;4905818;28;20083;-66
2022/03/04 07:00:22;;;;;;;41.05;17.40;;;-2.10;64.20;;;;;;4907579;29;20036;-65
2022/03/04 07:02:48;;;;;;;36.45;16.63;;;-2.00;64.20;;;;;;4906771;28;20575;-65
2022/03/04 07:05:14;;;;;;;34.75;16.20;;;-2.00;64.10;;;;;;4907852;28;20040;-67
2022/03/04 07:07:40;;;;;;;35.28;17.00;;;-1.80;64.20;;;;;;4908578;29;20045;-66
2022/03/04 07:10:07;;;;;;;38.08;16.45;;;-1.80;64.30;;;;;;4905964;28;20730;-65
2022/03/04 07:12:32;;;;;;;35.47;15.52;;;-1.70;64.50;;;;;;4900151;28;20560;-66
2022/03/04 07:14:58;;;;;;;29.83;15.85;;;-1.60;64.50;;;;;;4902378;29;20044;-66
2022/03/04 07:17:24;;;;;;;30.85;15.73;;;-1.50;64.60;;;;;;4905254;28;20111;-64
2022/03/04 07:19:49;;;;;;;26.63;14.57;;;-1.40;64.40;;;;;;4906034;28;20032;-66
2022/03/04 07:22:15;;;;;;;33.85;15.40;;;-1.30;64.50;;;;;;4908513;28;20492;-66
2022/03/04 07:24:41;;;;;;;30.48;15.18;;;-1.20;64.60;;;;;;4909250;28;20292;-66
2022/03/04 07:27:06;;;;;;;28.88;15.23;;;-1.10;64.40;;;;;;4909008;28;20127;-65
2022/03/04 07:29:32;;;;;;;28.92;15.40;;;-0.90;64.30;;;;;;4906643;28;20433;-66
2022/03/04 07:31:58;;;;;;;31.83;15.23;;;-0.80;64.40;;;;;;4907924;29;20048;-65
2022/03/04 07:34:24;;;;;;;30.10;15.38;;;-0.70;64.30;;;;;;4908137;28;20044;-69
2022/03/04 07:36:52;;;;;;;29.50;15.43;;;-0.60;64.10;;;;;;4905922;29;20123;-66
2022/03/04 07:39:18;;;;;;;30.20;15.30;;;-0.40;64.00;;;;;;4906736;28;20040;-66
2022/03/04 07:41:43;;;;;;;31.52;15.68;;;-0.30;64.00;;;;;;4907216;29;20032;-66
2022/03/04 07:44:13;;;;;;;29.63;15.30;;;-0.20;63.80;;;;;;4906561;29;20047;-66
2022/03/04 07:46:38;;;;;;;31.13;15.45;;;-0.10;63.60;;;;;;4907317;28;20036;-65
2022/03/04 07:49:04;;;;;;;31.08;16.23;;;0.00;63.50;;;;;;4907139;28;20092;-66
2022/03/04 07:51:30;;;;;;;32.42;15.73;;;0.10;63.30;;;;;;4907678;28;20036;-66
2022/03/04 07:53:56;;;;;;;34.03;15.95;;;0.20;63.10;;;;;;4905895;28;20031;-66
2022/03/04 07:56:22;;;;;;;35.10;16.63;;;0.30;63.10;;;;;;4903597;28;20092;-65
2022/03/04 07:58:48;;;;;;;30.98;16.13;;;0.40;63.00;;;;;;4904929;28;20047;-66
2022/03/04 08:01:13;;;;;;;36.17;16.70;;;0.50;63.00;;;;;;4902158;29;20495;-65
2022/03/04 08:03:39;;;;;;;30.90;15.88;;;0.60;62.90;;;;;;4907903;29;20072;-65
2022/03/04 08:06:05;;;;;;;29.48;16.00;;;0.60;62.60;;;;;;4907300;28;20094;-65
2022/03/04 08:08:30;;;;;;;31.95;16.00;;;0.70;62.40;;;;;;4905581;28;20040;-65
2022/03/04 08:10:56;;;;;;;33.08;15.90;;;0.80;62.30;;;;;;4905082;28;20059;-66
2022/03/04 08:13:22;;;;;;;30.48;15.00;;;0.90;62.30;;;;;;4900941;29;20500;-65
2022/03/04 08:15:47;;;;;;;32.53;15.75;;;0.90;62.00;;;;;;4906812;28;20128;-65
2022/03/04 08:18:13;;;;;;;31.23;15.88;;;1.00;61.80;;;;;;4905443;29;20036;-65
2022/03/04 08:20:39;;;;;;;29.13;15.00;;;1.10;61.90;;;;;;4905805;28;20285;-65
2022/03/04 08:23:05;;;;;;;29.35;15.90;;;1.20;61.80;;;;;;4906926;29;20028;-65
2022/03/04 08:25:32;;;;;;;34.30;15.60;;;1.20;61.50;;;;;;4904269;28;20051;-63
2022/03/04 08:27:57;;;;;;;29.25;14.32;;;1.30;61.30;;;;;;4907402;29;20356;-65
2022/03/04 08:30:23;;;;;;;31.50;15.68;;;1.40;61.20;;;;;;4904864;28;20466;-66
2022/03/04 08:32:49;;;;;;;31.05;16.55;;;1.50;61.00;;;;;;4904733;28;20205;-66
2022/03/04 08:35:16;;;;;;;40.67;16.63;;;1.60;60.70;;;;;;4905683;28;20493;-65
2022/03/04 08:37:41;;;;;;;27.00;14.98;;;1.60;60.40;;;;;;4906135;28;20242;-65
2022/03/04 08:40:08;;;;;;;29.33;15.15;;;1.70;60.40;;;;;;4907569;28;20039;-65
2022/03/04 08:42:35;;;;;;;31.23;15.10;;;1.80;61.40;;;;;;4900482;28;20508;-65
2022/03/04 08:45:01;;;;;;;27.48;15.40;;;1.90;60.30;;;;;;4905953;28;20059;-65
2022/03/04 08:47:27;;;;;;;29.92;15.20;;;1.90;59.90;;;;;;4906412;29;20040;-65
2022/03/04 08:49:52;;;;;;;26.80;14.75;;;2.00;60.60;;;;;;4906324;28;20099;-64
2022/03/04 08:52:18;;;;;;;35.00;14.68;;;2.10;59.70;;;;;;4907055;29;20067;-65
2022/03/04 08:54:44;;;;;;;29.52;15.25;;;2.20;59.60;;;;;;4905433;28;20127;-65
2022/03/04 08:57:09;;;;;;;31.65;15.50;;;2.30;59.40;;;;;;4907362;28;20044;-64
2022/03/04 08:59:35;;;;;;;31.40;16.60;;;2.40;59.30;;;;;;4904632;29;20385;-65
2022/03/04 09:02:01;;;;;;;31.80;16.20;;;2.40;58.90;;;;;;4900358;28;20064;-64
2022/03/04 09:04:27;;;;;;;30.35;15.07;;;2.50;58.70;;;;;;4906107;28;20040;-65
2022/03/04 09:06:52;;;;;;;30.80;15.18;;;2.60;58.60;;;;;;4906183;28;20058;-65
2022/03/04 09:09:18;;;;;;;26.75;14.00;;;2.70;58.50;;;;;;4907643;28;20066;-65
2022/03/04 09:11:44;;;;;;;27.80;14.50;;;2.80;58.40;;;;;;4904121;28;20143;-64
2022/03/04 09:14:10;;;;;;;39.15;13.77;;;2.80;58.20;;;;;;4907052;28;20054;-65
2022/03/04 09:16:36;;;;;;;27.48;14.90;;;2.90;58.10;;;;;;4904266;28;20047;-65
2022/03/04 09:19:02;;;;;;;32.53;15.48;;;2.90;57.90;;;;;;4904871;29;20051;-65
2022/03/04 09:21:28;;;;;;;27.45;15.05;;;3.00;57.50;;;;;;4907436;28;20480;-65
2022/03/04 09:23:54;;;;;;;26.48;14.43;;;3.10;58.20;;;;;;4906510;28;20064;-65
2022/03/04 09:26:20;;;;;;;29.33;14.95;;;3.20;57.50;;;;;;4910323;28;20063;-65
2022/03/04 09:28:47;;;;;;;28.08;14.52;;;3.20;57.50;;;;;;4910759;28;20782;-65
2022/03/04 09:31:13;;;;;;;25.58;13.68;;;3.30;57.00;;;;;;4909793;28;20067;-66
2022/03/04 09:33:39;;;;;;;26.52;13.20;;;3.40;56.90;;;;;;4910173;28;20040;-66
2022/03/04 09:36:06;;;;;;;26.75;14.50;;;3.50;56.90;;;;;;4910410;28;20508;-67
2022/03/04 09:38:32;;;;;;;26.77;14.65;;;3.60;56.70;;;;;;4909104;28;20032;-65
2022/03/04 09:40:59;;;;;;;27.67;14.43;;;3.70;56.40;;;;;;4909340;28;20198;-64
2022/03/04 09:43:24;;;;;;;26.33;14.18;;;3.80;56.10;;;;;;4910272;28;20107;-65
2022/03/04 09:45:50;;;;;;;25.67;13.77;;;3.90;55.90;;;;;;4910101;28;20144;-66
2022/03/04 09:48:17;;;;;;;26.55;13.48;;;3.90;55.80;;;;;;4925130;28;20091;-66
2022/03/04 09:50:46;;;;;;;28.35;13.90;;;4.00;55.70;;;;;;4908151;28;20139;-66
2022/03/04 09:53:12;;;;;;;25.30;14.20;;;4.10;55.50;;;;;;4909729;28;20401;-65
2022/03/04 09:55:40;;;;;;;24.95;13.40;;;4.20;55.20;;;;;;4908581;28;20044;-65
2022/03/04 09:58:14;;;;;;;25.70;13.85;;;4.30;54.90;;;;;;4908168;28;20059;-66
2022/03/04 10:00:42;;;;;;;25.33;13.75;;;4.40;54.40;;;;;;4908247;28;20444;-66
2022/03/04 10:03:30;;;;;;;25.27;13.32;;;4.50;54.80;;;;;;4907238;28;20033;-66
2022/03/04 10:05:59;;;;;;;25.73;13.48;;;4.60;54.00;;;;;;4908756;28;20036;-65
2022/03/04 10:08:26;;;;;;;25.45;12.77;;;4.60;54.50;;;;;;4911026;28;20040;-65
2022/03/04 10:10:58;;;;;;;27.15;14.27;;;4.70;54.40;;;;;;4907523;28;20802;-66
2022/03/04 10:13:42;;;;;;;25.23;13.45;;;4.80;53.80;;;;;;4907988;29;20415;-65
2022/03/04 10:16:08;;;;;;;26.75;13.40;;;4.90;53.50;;;;;;4908340;29;20285;-66
2022/03/04 10:18:34;;;;;;;22.77;12.85;;;4.90;54.10;;;;;;4909821;28;20028;-67
2022/03/04 10:21:00;;;;;;;25.88;13.90;;;5.00;53.90;;;;;;4909108;28;20044;-66
2022/03/04 10:23:27;;;;;;;23.05;13.18;;;5.10;53.50;;;;;;4910007;29;20039;-67
2022/03/04 10:25:58;;;;;;;26.23;14.10;;;5.20;53.30;;;;;;4907707;28;20488;-66
2022/03/04 10:28:26;;;;;;;26.05;14.52;;;5.30;53.00;;;;;;4906019;28;20527;-65
2022/03/04 10:30:53;;;;;;;23.88;13.18;;;5.30;53.00;;;;;;4908141;28;20100;-66
2022/03/04 10:33:27;;;;;;;24.88;13.45;;;5.40;53.50;;;;;;4907373;28;20046;-67
2022/03/04 10:36:13;;;;;;;24.60;13.30;;;5.40;52.60;;;;;;4906053;29;20500;-66
2022/03/04 10:38:41;;;;;;;23.17;13.43;;;5.50;51.80;;;;;;4906628;28;20202;-66
2022/03/04 10:41:24;;;;;;;23.65;13.30;;;5.50;52.40;;;;;;4910265;28;20416;-67
2022/03/04 10:43:51;;;;;;;24.98;13.95;;;5.60;51.50;;;;;;4910293;29;20032;-67
2022/03/04 10:46:17;;;;;;;23.42;13.77;;;5.70;52.20;;;;;;4910852;28;20044;-66
2022/03/04 10:48:54;;;;;;;27.20;13.95;;;5.70;51.60;;;;;;4910430;28;20094;-67
2022/03/04 10:51:37;;;;;;;23.73;13.88;;;5.80;51.00;;;;;;4909390;28;20463;-66
2022/03/04 10:54:10;;;;;;;24.55;13.38;;;5.80;51.20;;;;;;4911029;28;20043;-67
2022/03/04 10:56:55;;;;;;;25.35;13.68;;;5.80;50.80;;;;;;4908880;28;20079;-66
2022/03/04 10:59:23;;;;;;;23.65;12.77;;;5.90;50.80;;;;;;4912774;28;20035;-66
2022/03/04 11:01:55;;;;;;;23.92;13.63;;;5.90;51.30;;;;;;4925887;28;20043;-66
2022/03/04 11:04:22;;;;;;;22.58;13.10;;;6.00;52.00;;;;;;4927160;28;20078;-67
2022/03/04 11:06:49;;;;;;;22.73;13.27;;;6.00;51.10;;;;;;4928660;28;20055;-67
2022/03/04 11:09:16;;;;;;;24.65;13.20;;;6.10;50.90;;;;;;4927755;28;20118;-67
2022/03/04 11:11:43;;;;;;;24.42;13.55;;;6.20;51.00;;;;;;4924824;28;20087;-67
2022/03/04 11:14:12;;;;;;;25.10;13.65;;;6.20;50.90;;;;;;4927132;28;20031;-66
2022/03/04 11:16:39;;;;;;;26.42;14.13;;;6.30;51.00;;;;;;4927471;28;20040;-67
2022/03/04 11:19:06;;;;;;;25.02;14.27;;;6.40;50.50;;;;;;4928995;28;20059;-67
2022/03/04 11:21:33;;;;;;;23.60;13.85;;;6.50;49.60;;;;;;4929456;28;20059;-65
2022/03/04 11:23:58;;;;;;;24.65;13.93;;;6.50;50.00;;;;;;4929095;28;20064;-66
2022/03/04 11:26:28;;;;;;;22.05;12.90;;;6.60;49.70;;;;;;4928509;28;20091;-67
2022/03/04 11:28:56;;;;;;;24.52;13.65;;;6.60;49.60;;;;;;4928250;28;20081;-67
2022/03/04 11:31:25;;;;;;;22.67;13.27;;;6.70;49.40;;;;;;4928834;28;20031;-67
2022/03/04 11:34:02;;;;;;;26.17;14.27;;;6.70;49.60;;;;;;4928115;28;20381;-66
2022/03/04 11:36:34;;;;;;;23.42;13.10;;;6.80;48.50;;;;;;4929592;28;20388;-67
2022/03/04 11:39:08;;;;;;;22.70;13.45;;;6.90;48.70;;;;;;4927918;28;20621;-67
2022/03/04 11:41:39;;;;;;;23.10;13.63;;;6.90;49.00;;;;;;4926781;28;20035;-67
2022/03/04 11:44:20;;;;;;;23.27;13.52;;;7.00;47.80;;;;;;4912620;28;20095;-67
2022/03/04 11:46:51;;;;;;;21.85;12.70;;;7.00;48.30;;;;;;4907677;28;20095;-66
2022/03/04 11:49:38;;;;;;;20.98;12.63;;;7.10;49.00;;;;;;4908206;28;20472;-66
2022/03/04 11:52:10;;;;;;;21.85;12.60;;;7.10;47.80;;;;;;4918056;29;20131;-67
2022/03/04 11:54:41;;;;;;;25.77;12.65;;;7.20;48.50;;;;;;4921592;28;20040;-67
2022/03/04 11:57:27;;;;;;;21.13;12.00;;;7.30;48.40;;;;;;4925165;28;20033;-67
2022/03/04 12:00:19;;;;;;;23.63;13.15;;;7.40;47.30;;;;;;4925540;28;20056;-67
2022/03/04 12:02:46;;;;;;;22.35;12.90;;;7.40;47.50;;;;;;4922740;28;20066;-67
2022/03/04 12:05:12;;;;;;;20.42;12.10;;;7.50;48.40;;;;;;4926162;28;20032;-67
2022/03/04 12:07:39;;;;;;;22.75;12.93;;;7.50;48.00;;;;;;4925638;28;20110;-67
2022/03/04 12:10:11;;;;;;;24.10;12.90;;;7.60;48.00;;;;;;4924244;28;20484;-66
2022/03/04 12:12:38;;;;;;;24.55;12.75;;;7.60;47.50;;;;;;4923846;28;20039;-65
2022/03/04 12:15:16;;;;;;;24.10;12.85;;;7.70;47.80;;;;;;4925078;28;20036;-66
2022/03/04 12:18:05;;;;;;;23.88;13.95;;;7.70;47.30;;;;;;4926180;28;20036;-67
2022/03/04 12:20:40;;;;;;;20.20;12.18;;;7.80;45.70;;;;;;4922615;28;20028;-66
2022/03/04 12:23:27;;;;;;;22.52;13.23;;;7.80;47.20;;;;;;4925605;28;20047;-66
2022/03/04 12:25:52;;;;;;;23.75;13.65;;;7.80;46.40;;;;;;4925129;28;20047;-66
2022/03/04 12:28:26;;;;;;;21.73;13.38;;;7.90;47.30;;;;;;4921894;28;20044;-66
2022/03/04 12:31:01;;;;;;;23.40;13.90;;;7.90;46.20;;;;;;4922376;28;20039;-65
2022/03/04 12:33:38;;;;;;;22.73;13.65;;;7.90;45.60;;;;;;4923882;28;20419;-66